Aérodrome :
LOGIN :

S'inscrire | Disclaimer

   EN    FR    IT 

 










Légende :    VFR   VFR Marginal   IFR   IFR Intensif   IFR Très Intensif
Visi : 
Plafond : 
>= 8 km
>= 3000ft
5 à 8 km
1000 à 3000 ft
1500m à 5 km
500 à 1000 ft
800 à 1500m
200 à 500 ft
< 800m
< 200 ft
Symboles :   Orages  Brouillard  Fortes neiges  Fortes précipitations  Vent > 20 kt
SIGMETs :   Divers  Orages  Givrage  Turbulence  Onde Orograph.  Cendres Volcan.






- Altitude de l'aérodrome : 464 ft
- Code IATA : EVX


LFOE - Evreux

DERNIER METAR :
  • 230800Z AUTO 28010KT 240V300 9999 FEW006 BKN014 OVC024 19/16 Q1020 TEMPO 4000 -RADZ BECMG BKN035

METARs EXPIRÉS :
  • 230730Z AUTO 28012KT 9000 4400 BKN008 OVC014 17/16 Q1020 TEMPO 4000 -RADZ BECMG BKN035
  • 230700Z AUTO 29011KT 9999 FEW008 SCT013 OVC018 18/16 Q1019 TEMPO 22008KT 4000 -RADZ BKN006
  • 230630Z AUTO 30012KT 280V340 9999 OVC005 17/16 Q1019 TEMPO 22008KT 4000 -RADZ
  • 230600Z AUTO 29008KT 2700 -RA BR BKN004 BKN016 OVC022 18/17 Q1019 TEMPO 4000 -RADZ BKN006
  • 230530Z AUTO 23007KT 190V270 9999 OVC006 19/18 Q1019 TEMPO 4000 -RADZ
  • 230500Z AUTO 22009KT 9999 OVC007 18/18 Q1018 TEMPO 4000 -RA
  • 230430Z AUTO 22010KT 5000 +RADZ BR OVC006 18/18 Q1018 TEMPO NSW
  • 230400Z AUTO 22010KT 9999 OVC008 18/18 Q1019 TEMPO 4000 -RA
  • 230330Z AUTO 22008KT 200V270 9999 BKN007 OVC012 18/18 Q1019 TEMPO 4000 -RA
  • 230300Z AUTO 22009KT 200V260 5000 +RADZ BR BKN008 OVC012 19/18 Q1019 TEMPO NSW

TAF AMD TAF LFOE
Valide du 23 à 05h jusqu'au 24 à 03h UTC


230509Z 2305/2403 22008KT 9999 OVC012
TEMPO 2305/2309 4000 -RADZ BKN006
BECMG 2308/2310 29010G20KT BKN035



MET'MAP, la Météo Aéronautique d'un coup d'oeil ! - Copyright ORBIFLY Décembre 2007 - Disclaimer

ORBIFLY MET'MAP TEAM :

Programmation & Développement : Alexandra Zaïnal
Sur une idée originale de : Baudouin d'Aumeries
Soutien technique & logistique : Manuel Goepfert
Assistance : Marc-Olivier Méhu




SOURCES & CREDITS :

   NOAA